Time;durP1;ratioP1;P1;durP2;ratioP2;P2;SDS_P1;SDS_P2;PMS_P1;PMS_P2;Temp;Humidity;BMP_temperature;BMP_pressure;BME280_temperature;BME280_humidity;BME280_pressure;Samples;Min_cycle;Max_cycle;Signal;HPM_P1;HPM_P2
2021/08/30 00:02:21;;;;;;;;;7.00;5.50;;;;;16.28;72.57;101139.41;4998384;28;47265;-62
2021/08/30 00:04:47;;;;;;;;;3.00;3.00;;;;;16.28;72.18;101142.03;4998273;28;45932;-63
2021/08/30 00:07:12;;;;;;;;;8.25;7.25;;;;;16.26;72.42;101134.16;5016742;28;45469;-62
2021/08/30 00:09:37;;;;;;;;;5.00;5.00;;;;;16.25;72.36;101131.59;5016680;28;45367;-64
2021/08/30 00:12:03;;;;;;;;;4.50;4.50;;;;;16.26;72.07;101139.47;5016301;28;45409;-62
2021/08/30 00:14:31;;;;;;;;;6.25;5.25;;;;;16.26;72.50;101138.63;5016285;28;45380;-62
2021/08/30 00:16:56;;;;;;;;;9.25;5.00;;;;;16.27;72.39;101135.88;5016159;28;45271;-61
2021/08/30 00:19:21;;;;;;;;;9.75;7.50;;;;;16.28;73.22;101132.28;5016472;28;45274;-61
2021/08/30 00:21:47;;;;;;;;;7.50;5.75;;;;;16.30;72.30;101130.38;4997996;28;47968;-61
2021/08/30 00:24:12;;;;;;;;;9.25;6.50;;;;;16.30;71.92;101132.19;5016406;28;45389;-61
2021/08/30 00:26:37;;;;;;;;;6.00;6.00;;;;;16.30;72.05;101125.06;5016249;28;45246;-61
2021/08/30 00:29:03;;;;;;;;;6.00;4.25;;;;;16.34;72.05;101128.44;5016027;28;45312;-62
2021/08/30 00:31:28;;;;;;;;;9.75;7.75;;;;;16.37;72.04;101136.22;5015837;28;45399;-61
2021/08/30 00:33:54;;;;;;;;;9.25;7.00;;;;;16.38;72.00;101134.41;5015747;28;45277;-60
2021/08/30 00:36:19;;;;;;;;;7.50;6.75;;;;;16.36;72.20;101126.53;5016148;28;45247;-61
2021/08/30 00:38:45;;;;;;;;;9.50;7.00;;;;;16.36;72.11;101124.72;5016243;28;45544;-61
2021/08/30 00:41:12;;;;;;;;;10.50;6.25;;;;;16.38;71.86;101129.97;4997776;28;45952;-61
2021/08/30 00:43:38;;;;;;;;;10.50;8.25;;;;;16.39;72.12;101118.41;5015745;28;45379;-62
2021/08/30 00:46:03;;;;;;;;;12.50;9.00;;;;;16.44;72.01;101119.00;5016023;28;45372;-62
2021/08/30 00:48:28;;;;;;;;;11.00;8.00;;;;;16.49;72.10;101119.59;5016248;28;45593;-61
2021/08/30 00:50:55;;;;;;;;;10.25;8.00;;;;;16.55;71.68;101114.88;5015120;28;45424;-62
2021/08/30 00:53:20;;;;;;;;;11.25;8.75;;;;;16.56;71.61;101116.59;5015384;28;45286;-62
2021/08/30 00:55:46;;;;;;;;;8.75;6.75;;;;;16.52;72.03;101109.75;5016002;28;45262;-62
2021/08/30 00:58:11;;;;;;;;;4.75;4.00;;;;;16.53;71.59;101112.34;5015886;28;45413;-62
2021/08/30 01:00:36;;;;;;;;;8.50;7.75;;;;;16.52;72.07;101107.97;5015826;28;45335;-62
2021/08/30 01:03:02;;;;;;;;;9.25;9.25;;;;;16.53;71.95;101112.34;5015718;28;45401;-61
2021/08/30 01:05:28;;;;;;;;;10.75;10.00;;;;;16.47;73.40;101099.41;5015613;28;45245;-61
2021/08/30 01:08:02;;;;;;;;;6.25;5.75;;;;;16.42;73.19;101114.72;5015529;28;45385;-61
2021/08/30 01:10:37;;;;;;;;;10.25;8.75;;;;;16.35;73.15;101111.56;5015420;28;46575;-63
2021/08/30 01:13:08;;;;;;;;;12.50;10.25;;;;;16.30;74.28;101113.63;5014992;28;45273;-61
2021/08/30 01:15:44;;;;;;;;;16.00;10.00;;;;;16.26;73.80;101115.56;5015310;28;45300;-62
2021/08/30 01:18:22;;;;;;;;;13.25;11.00;;;;;16.27;74.08;101113.78;5015108;28;45288;-62
2021/08/30 01:20:58;;;;;;;;;12.25;10.25;;;;;16.26;74.12;101106.78;5013777;28;47217;-61
2021/08/30 01:23:25;;;;;;;;;11.25;9.75;;;;;16.29;74.30;101107.44;5014985;28;45355;-61
2021/08/30 01:25:53;;;;;;;;;16.75;13.75;;;;;16.30;75.24;101105.66;5015055;28;45369;-61
2021/08/30 01:28:23;;;;;;;;;10.75;9.25;;;;;16.29;74.49;101098.63;5015732;28;45490;-62
2021/08/30 01:30:49;;;;;;;;;11.25;10.00;;;;;16.29;74.79;101099.47;5015307;28;47245;-62
2021/08/30 01:33:16;;;;;;;;;13.75;12.25;;;;;16.25;74.75;101094.44;5015334;28;45287;-63
2021/08/30 01:35:42;;;;;;;;;13.25;11.25;;;;;16.29;74.92;101099.47;5015093;28;45342;-62
2021/08/30 01:38:09;;;;;;;;;18.75;13.50;;;;;16.33;74.86;101102.81;4997588;28;45593;-62
2021/08/30 01:40:35;;;;;;;;;10.25;9.25;;;;;16.36;75.15;101102.66;5014974;28;47417;-60
2021/08/30 01:43:01;;;;;;;;;10.00;9.25;;;;;16.34;75.09;101099.22;5014835;28;45540;-63
2021/08/30 01:45:29;;;;;;;;;10.25;10.25;;;;;16.36;74.69;101100.84;5014998;28;45335;-61
2021/08/30 01:47:58;;;;;;;;;12.75;10.25;;;;;16.43;74.74;101097.84;5015272;28;45548;-62
2021/08/30 01:50:25;;;;;;;;;14.50;13.25;;;;;16.43;74.75;101101.38;5014423;28;45368;-62
2021/08/30 01:52:52;;;;;;;;;16.25;12.75;;;;;16.41;74.91;101092.63;4997326;28;45384;-62
2021/08/30 01:55:45;;;;;;;;;12.50;11.75;;;;;16.38;74.95;101086.63;5015142;28;45384;-64
2021/08/30 02:00:51;;;;;;;;;11.75;11.75;;;;;16.37;75.16;101088.44;5014368;28;45325;-63
2021/08/30 02:03:30;;;;;;;;;13.25;11.75;;;;;16.39;75.01;101093.66;5014885;28;45376;-63
2021/08/30 02:06:01;;;;;;;;;21.75;17.00;;;;;16.33;76.01;101089.56;5013143;28;45308;-61
2021/08/30 02:08:29;;;;;;;;;15.00;11.00;;;;;16.31;75.80;101088.78;5014461;28;45603;-62
2021/08/30 02:10:58;;;;;;;;;13.50;11.25;;;;;16.29;75.99;101085.38;5014358;28;46480;-62
2021/08/30 02:13:27;;;;;;;;;14.50;10.75;;;;;16.26;77.65;101094.34;5014534;28;45457;-61
2021/08/30 02:15:54;;;;;;;;;13.50;12.25;;;;;16.23;76.63;101093.66;5013143;28;45422;-63
2021/08/30 02:18:57;;;;;;;;;13.00;13.00;;;;;16.27;76.63;101100.53;5014613;28;45565;-61
2021/08/30 02:21:24;;;;;;;;;15.75;11.25;;;;;16.28;76.51;101099.56;5004527;28;45555;-62
2021/08/30 02:23:56;;;;;;;;;13.00;10.75;;;;;16.28;76.65;101095.09;5014536;28;45412;-61
2021/08/30 02:26:27;;;;;;;;;14.25;14.00;;;;;16.27;76.86;101090.75;5014801;28;45546;-62
2021/08/30 02:28:54;;;;;;;;;12.75;12.25;;;;;16.28;76.73;101096.91;5014957;28;45361;-63
2021/08/30 02:31:20;;;;;;;;;16.00;15.00;;;;;16.29;77.09;101086.19;5014626;28;45263;-62
2021/08/30 02:33:47;;;;;;;;;18.00;14.00;;;;;16.26;78.04;101082.88;5014363;28;45493;-62
2021/08/30 02:36:14;;;;;;;;;14.25;13.00;;;;;16.24;77.86;101088.25;5014047;28;45372;-61
2021/08/30 02:38:42;;;;;;;;;10.50;10.25;;;;;16.29;77.62;101085.38;5014298;28;45420;-62
2021/08/30 02:41:09;;;;;;;;;10.00;9.00;;;;;16.31;77.59;101086.97;4996296;28;47067;-62
2021/08/30 02:43:34;;;;;;;;;17.75;13.50;;;;;16.31;77.56;101079.00;5014147;28;45384;-62
2021/08/30 02:46:01;;;;;;;;;12.50;11.50;;;;;16.34;77.91;101088.59;5014074;28;45408;-62
2021/08/30 02:48:28;;;;;;;;;18.25;15.50;;;;;16.23;78.06;101064.47;4996060;28;45379;-61
2021/08/30 02:50:55;;;;;;;;;16.25;15.25;;;;;16.32;78.08;101077.22;5013842;28;47036;-60
2021/08/30 02:53:23;;;;;;;;;19.50;15.75;;;;;16.38;77.67;101079.53;5014002;28;45252;-62
2021/08/30 02:55:51;;;;;;;;;14.75;13.25;;;;;16.37;78.01;101077.81;5013929;28;45353;-62
2021/08/30 02:58:17;;;;;;;;;19.50;15.00;;;;;16.34;77.87;101078.84;5014078;28;45629;-63
2021/08/30 03:00:42;;;;;;;;;13.75;11.00;;;;;16.33;77.99;101079.78;5013810;28;45346;-63
2021/08/30 03:03:07;;;;;;;;;19.25;13.50;;;;;16.37;78.43;101088.44;5013863;28;45308;-63
2021/08/30 03:05:34;;;;;;;;;15.00;10.75;;;;;16.38;78.34;101084.84;5014177;28;45438;-63
2021/08/30 03:08:00;;;;;;;;;20.25;15.25;;;;;16.39;78.57;101086.56;5014217;28;45552;-62
2021/08/30 03:10:26;;;;;;;;;13.00;12.50;;;;;16.41;78.25;101081.13;4995911;28;47014;-62
2021/08/30 03:12:54;;;;;;;;;15.25;13.25;;;;;16.46;78.49;101082.59;5014094;28;45230;-62
2021/08/30 03:15:23;;;;;;;;;15.50;13.75;;;;;16.49;78.42;101078.94;5015438;28;45311;-62
2021/08/30 03:17:51;;;;;;;;;15.25;13.25;;;;;16.54;77.88;101078.66;5016986;28;45544;-62
2021/08/30 03:20:23;;;;;;;;;14.25;11.75;;;;;16.56;77.79;101072.31;5016955;28;46711;-62
2021/08/30 03:22:51;;;;;;;;;14.25;13.25;;;;;16.60;77.89;101076.50;5016823;28;45347;-64
2021/08/30 03:25:18;;;;;;;;;14.50;12.00;;;;;16.62;77.76;101082.59;5015373;28;45403;-64
2021/08/30 03:27:46;;;;;;;;;14.75;13.00;;;;;16.60;77.92;101073.84;5015509;28;45303;-63
2021/08/30 03:30:14;;;;;;;;;14.25;10.25;;;;;16.55;78.17;101065.31;5016795;28;46333;-61
2021/08/30 03:32:42;;;;;;;;;11.50;11.00;;;;;16.60;78.28;101072.97;4998997;28;45405;-63
2021/08/30 03:35:09;;;;;;;;;13.75;12.25;;;;;16.59;78.15;101081.91;5016832;28;45301;-61
2021/08/30 03:37:35;;;;;;;;;14.75;13.00;;;;;16.57;78.29;101067.84;5017059;28;45528;-62
2021/08/30 03:40:02;;;;;;;;;11.00;10.00;;;;;16.61;78.68;101072.91;5016555;28;45789;-62
2021/08/30 03:42:27;;;;;;;;;15.25;15.00;;;;;16.58;79.33;101058.94;5016429;28;45492;-61
2021/08/30 03:44:53;;;;;;;;;15.50;13.00;;;;;16.57;78.43;101062.53;5016893;28;45837;-62
2021/08/30 03:47:20;;;;;;;;;15.75;12.25;;;;;16.61;78.32;101072.03;5016904;28;45658;-62
2021/08/30 03:49:48;;;;;;;;;15.75;14.00;;;;;16.60;78.54;101065.00;4998307;28;46342;-61
2021/08/30 03:52:15;;;;;;;;;15.50;14.50;;;;;16.63;78.39;101072.81;5016374;28;45462;-62
2021/08/30 03:54:40;;;;;;;;;16.50;13.75;;;;;16.63;78.42;101065.72;5016587;28;45300;-62
2021/08/30 03:57:06;;;;;;;;;13.25;12.00;;;;;16.63;78.57;101067.50;5016676;28;45260;-62
2021/08/30 03:59:35;;;;;;;;;18.00;15.75;;;;;16.65;78.40;101066.47;5016048;28;45524;-61
2021/08/30 04:02:03;;;;;;;;;19.25;15.25;;;;;16.65;78.61;101068.25;5016413;28;45452;-61
2021/08/30 04:04:30;;;;;;;;;17.75;16.25;;;;;16.67;78.63;101069.03;5016402;28;45369;-62
2021/08/30 04:06:57;;;;;;;;;21.75;18.25;;;;;16.66;78.60;101062.00;5016512;28;45446;-62
2021/08/30 04:09:23;;;;;;;;;19.25;15.50;;;;;16.66;79.12;101067.31;5016658;28;46312;-63
2021/08/30 04:11:49;;;;;;;;;17.00;16.75;;;;;16.63;78.90;101072.81;4998295;28;45406;-63
2021/08/30 04:14:16;;;;;;;;;16.00;14.25;;;;;16.67;78.64;101070.84;5016552;28;45528;-62
2021/08/30 04:16:42;;;;;;;;;19.75;17.50;;;;;16.66;78.62;101075.28;5016386;28;45462;-61
2021/08/30 04:19:07;;;;;;;;;13.50;12.00;;;;;16.68;78.82;101068.09;5015588;28;46247;-61
2021/08/30 04:21:33;;;;;;;;;22.25;19.00;;;;;16.68;78.83;101062.78;5016081;28;45277;-61
2021/08/30 04:23:58;;;;;;;;;19.00;16.25;;;;;16.71;79.13;101065.25;5016252;28;45309;-62
2021/08/30 04:26:24;;;;;;;;;20.50;16.50;;;;;16.71;78.60;101061.75;5016530;28;45369;-61
2021/08/30 04:28:49;;;;;;;;;24.25;18.50;;;;;16.74;78.61;101059.75;5015856;28;45518;-62
2021/08/30 04:31:14;;;;;;;;;21.50;16.50;;;;;16.78;78.75;101068.41;5016006;28;45342;-62
2021/08/30 04:33:40;;;;;;;;;19.50;16.50;;;;;16.81;78.23;101076.19;5016160;28;45249;-62
2021/08/30 04:36:06;;;;;;;;;21.25;16.25;;;;;16.79;78.38;101068.31;5016185;28;45266;-63
2021/08/30 04:38:33;;;;;;;;;18.00;17.50;;;;;16.80;78.47;101075.34;5015765;28;45360;-63
2021/08/30 04:40:58;;;;;;;;;20.25;19.50;;;;;16.80;78.52;101070.00;4998253;28;45472;-63
2021/08/30 04:43:23;;;;;;;;;18.50;17.00;;;;;16.82;78.98;101071.72;5015770;28;45316;-62
2021/08/30 04:45:49;;;;;;;;;20.50;19.75;;;;;16.84;78.93;101069.84;5016108;28;45333;-62
2021/08/30 04:48:14;;;;;;;;;20.50;18.75;;;;;16.79;78.89;101059.50;5015592;28;46497;-62
2021/08/30 04:50:40;;;;;;;;;26.50;19.75;;;;;16.82;79.27;101075.25;5014251;28;45881;-61
2021/08/30 04:53:05;;;;;;;;;23.75;20.00;;;;;16.90;79.22;101080.97;4998001;28;45869;-62
2021/08/30 04:55:30;;;;;;;;;22.75;21.00;;;;;16.90;78.93;101080.09;5015719;28;45257;-62
2021/08/30 04:57:56;;;;;;;;;20.25;18.50;;;;;16.89;78.95;101079.25;5015586;28;45311;-62
2021/08/30 05:00:21;;;;;;;;;19.25;17.75;;;;;16.91;79.19;101085.34;5015525;28;45284;-61
2021/08/30 05:02:47;;;;;;;;;23.50;20.25;;;;;16.94;78.90;101082.50;5015607;28;45565;-61
2021/08/30 05:05:12;;;;;;;;;21.50;20.50;;;;;16.96;78.65;101084.22;5015574;28;45495;-62
2021/08/30 05:07:38;;;;;;;;;20.00;18.00;;;;;16.97;78.75;101085.91;5014924;28;45614;-62
2021/08/30 05:10:04;;;;;;;;;21.75;19.50;;;;;16.94;79.15;101094.91;5015306;28;45372;-62
2021/08/30 05:12:29;;;;;;;;;24.00;21.50;;;;;16.92;79.08;101095.03;5015632;28;45496;-61
2021/08/30 05:14:55;;;;;;;;;25.50;20.75;;;;;16.87;78.88;101086.47;5015178;28;45290;-62
2021/08/30 05:17:21;;;;;;;;;25.25;23.00;;;;;16.92;78.70;101089.72;5013626;28;47681;-63
2021/08/30 05:19:46;;;;;;;;;31.50;25.00;;;;;16.96;78.75;101092.19;5014934;28;45537;-62
2021/08/30 05:22:13;;;;;;;;;22.50;20.75;;;;;16.94;78.78;101093.13;4997332;28;45444;-62
2021/08/30 05:24:42;;;;;;;;;22.75;22.75;;;;;16.97;79.15;101094.81;4997311;28;45332;-62
2021/08/30 05:27:07;;;;;;;;;28.25;26.00;;;;;16.97;78.82;101089.47;5014821;28;45678;-61
2021/08/30 05:29:33;;;;;;;;;27.75;20.00;;;;;17.05;78.68;101100.50;5014932;28;45320;-61
2021/08/30 05:31:58;;;;;;;;;27.00;25.50;;;;;17.07;79.11;101089.78;5015344;28;45223;-62
2021/08/30 05:34:24;;;;;;;;;31.25;26.25;;;;;17.08;78.57;101092.34;5015291;28;45974;-63
2021/08/30 05:36:50;;;;;;;;;37.00;31.25;;;;;17.12;78.73;101095.66;5015072;28;46251;-60
2021/08/30 05:39:15;;;;;;;;;30.25;28.25;;;;;17.14;78.65;101100.91;5014398;28;45301;-63
2021/08/30 05:41:41;;;;;;;;;28.75;26.00;;;;;17.13;78.62;101096.53;5014943;28;45339;-62
2021/08/30 05:44:12;;;;;;;;;27.75;21.50;;;;;17.12;78.59;101094.84;5015262;28;45454;-63
2021/08/30 05:46:37;;;;;;;;;35.75;25.25;;;;;17.12;78.50;101100.97;5014613;28;46141;-62
2021/08/30 05:49:03;;;;;;;;;26.50;24.50;;;;;17.14;78.32;101098.25;5014877;28;45303;-61
2021/08/30 05:51:28;;;;;;;;;33.25;31.50;;;;;17.15;78.34;101100.81;5015142;28;45251;-62
2021/08/30 05:53:54;;;;;;;;;31.25;27.50;;;;;17.14;78.70;101103.56;5014755;28;45547;-61
2021/08/30 05:56:19;;;;;;;;;33.25;26.00;;;;;17.13;78.72;101102.69;5014234;28;46396;-61
2021/08/30 05:58:45;;;;;;;;;34.75;29.75;;;;;17.15;78.54;101105.28;4996472;28;45371;-60
2021/08/30 06:01:10;;;;;;;;;33.75;29.75;;;;;17.13;78.72;101102.69;5014732;28;45342;-61
2021/08/30 06:03:36;;;;;;;;;29.00;23.25;;;;;17.15;78.40;101103.47;5014582;28;45644;-61
2021/08/30 06:06:02;;;;;;;;;35.00;30.50;;;;;17.19;78.51;101107.66;5013111;28;46921;-62
2021/08/30 06:08:27;;;;;;;;;33.25;30.75;;;;;17.25;78.25;101113.53;5014290;28;46096;-64
2021/08/30 06:10:55;;;;;;;;;34.00;26.25;;;;;17.29;78.08;101109.75;5014660;28;45355;-63
2021/08/30 06:13:21;;;;;;;;;33.50;29.75;;;;;17.30;78.26;101112.34;5014863;28;45626;-64
2021/08/30 06:15:46;;;;;;;;;36.75;31.25;;;;;17.33;77.85;101112.16;5014403;28;45554;-63
2021/08/30 06:18:15;;;;;;;;;22.00;21.75;;;;;17.38;77.69;101111.84;5012807;28;45424;-64
2021/08/30 06:20:40;;;;;;;;;31.25;30.25;;;;;17.35;77.88;101104.94;5014630;28;45290;-62
2021/08/30 06:23:06;;;;;;;;;38.00;30.50;;;;;17.41;77.66;101116.97;5014356;28;45533;-62
2021/08/30 06:25:31;;;;;;;;;36.25;27.75;;;;;17.45;77.61;101105.22;4996255;28;47090;-61
2021/08/30 06:27:57;;;;;;;;;36.00;32.00;;;;;17.51;77.59;101109.31;5014273;28;45405;-63
2021/08/30 06:30:22;;;;;;;;;36.00;31.00;;;;;17.57;77.35;101113.41;5014203;28;45387;-62
2021/08/30 06:32:48;;;;;;;;;34.75;28.75;;;;;17.63;76.99;101126.34;5014258;28;45352;-64
2021/08/30 06:35:13;;;;;;;;;28.00;25.75;;;;;17.62;76.73;101127.28;5014040;28;45468;-62
2021/08/30 06:37:42;;;;;;;;;29.50;27.75;;;;;17.57;76.92;101119.56;5014036;28;45342;-64
2021/08/30 06:40:08;;;;;;;;;35.25;30.75;;;;;17.67;76.50;101128.69;4996347;28;45285;-62
2021/08/30 06:42:33;;;;;;;;;39.50;30.50;;;;;17.70;76.77;101126.78;5014416;28;45187;-63
2021/08/30 06:44:59;;;;;;;;;29.75;27.75;;;;;17.76;76.21;101123.75;4996035;28;47283;-61
2021/08/30 06:47:24;;;;;;;;;34.25;29.25;;;;;17.75;76.06;101117.59;5013752;28;45361;-63
2021/08/30 06:49:50;;;;;;;;;38.25;31.75;;;;;17.80;76.11;101126.16;5014635;28;45247;-63
2021/08/30 06:52:15;;;;;;;;;30.50;29.50;;;;;17.86;75.91;101127.56;5017709;28;45455;-62
2021/08/30 06:54:41;;;;;;;;;32.00;30.25;;;;;17.91;75.74;101129.94;5017347;28;45385;-63
2021/08/30 06:57:06;;;;;;;;;31.25;29.00;;;;;17.92;75.54;101124.50;5017787;28;45367;-62
2021/08/30 06:59:32;;;;;;;;;32.50;29.50;;;;;17.98;74.99;101117.09;5017533;28;45364;-62
2021/08/30 07:01:57;;;;;;;;;35.50;32.25;;;;;18.01;75.27;101122.25;5017363;28;45316;-63
2021/08/30 07:04:22;;;;;;;;;32.00;30.50;;;;;18.09;75.04;101125.31;5017146;28;45386;-61
2021/08/30 07:06:48;;;;;;;;;32.25;29.25;;;;;18.15;74.34;101129.38;5017041;28;45376;-63
2021/08/30 07:09:13;;;;;;;;;28.75;26.75;;;;;18.21;74.34;101129.84;4999370;28;45375;-62
2021/08/30 07:11:39;;;;;;;;;28.50;27.50;;;;;18.22;73.90;101136.00;5017240;28;45691;-61
2021/08/30 07:14:04;;;;;;;;;36.75;29.25;;;;;18.19;73.79;101134.41;5017173;28;45401;-62
2021/08/30 07:16:30;;;;;;;;;33.50;28.50;;;;;18.21;73.63;101135.19;5016825;28;45330;-62
2021/08/30 07:18:55;;;;;;;;;31.00;27.25;;;;;18.27;73.92;101144.56;5016530;28;45422;-62
2021/08/30 07:21:23;;;;;;;;;30.00;28.50;;;;;18.25;73.57;101152.66;5015611;28;45387;-62
2021/08/30 07:23:49;;;;;;;;;31.50;27.00;;;;;18.25;73.56;101141.16;5016724;28;46609;-63
2021/08/30 07:26:14;;;;;;;;;34.25;27.75;;;;;18.33;72.73;101156.66;5016699;28;45334;-61
2021/08/30 07:28:40;;;;;;;;;28.25;26.00;;;;;18.37;72.76;101147.50;5016995;28;45384;-62
2021/08/30 07:31:05;;;;;;;;;31.25;28.00;;;;;18.45;72.44;101142.53;5017497;28;45602;-63
2021/08/30 07:33:30;;;;;;;;;34.00;29.25;;;;;18.60;72.26;101151.34;5016697;28;45790;-62
2021/08/30 07:35:56;;;;;;;;;26.75;24.00;;;;;18.78;71.86;101151.09;4998628;28;45250;-63
2021/08/30 07:38:21;;;;;;;;;32.00;27.25;;;;;18.89;71.45;101153.03;5017004;28;45379;-63
2021/08/30 07:40:47;;;;;;;;;29.00;27.75;;;;;18.97;70.72;101150.75;5017139;28;45329;-62
2021/08/30 07:43:13;;;;;;;;;30.25;28.25;;;;;18.97;70.89;101156.06;5016511;28;45366;-62
2021/08/30 07:45:39;;;;;;;;;32.50;25.50;;;;;19.06;70.30;101166.13;5017193;28;45377;-63
2021/08/30 07:48:04;;;;;;;;;23.25;22.50;;;;;19.09;69.67;101168.63;5016802;28;45334;-62
2021/08/30 07:50:30;;;;;;;;;27.50;23.50;;;;;19.12;69.19;101165.75;4999084;28;45396;-63
2021/08/30 07:52:55;;;;;;;;;27.25;23.25;;;;;19.11;68.91;101164.03;5016501;28;46294;-63
2021/08/30 07:55:21;;;;;;;;;22.75;20.50;;;;;19.21;69.00;101158.09;4998552;28;45314;-64
2021/08/30 07:57:46;;;;;;;;;23.50;21.50;;;;;19.34;68.54;101160.75;5016478;28;45432;-63
2021/08/30 08:00:13;;;;;;;;;26.50;20.75;;;;;19.46;67.54;101159.06;5016437;28;45228;-62
2021/08/30 08:02:39;;;;;;;;;25.00;21.00;;;;;19.59;66.58;101159.94;5016437;28;47190;-63
2021/08/30 08:05:05;;;;;;;;;21.50;19.50;;;;;19.60;66.62;101158.09;5016322;28;45222;-63
2021/08/30 08:07:31;;;;;;;;;20.75;17.75;;;;;19.68;66.04;101172.63;5016359;28;45420;-63
2021/08/30 08:09:56;;;;;;;;;20.00;19.25;;;;;19.82;66.31;101176.16;4995075;28;45419;-63
2021/08/30 08:12:21;;;;;;;;;23.25;19.50;;;;;19.97;65.20;101183.09;5015003;28;45505;-63
2021/08/30 08:14:47;;;;;;;;;19.75;18.50;;;;;19.99;64.98;101180.34;5015970;28;45340;-62
2021/08/30 08:17:12;;;;;;;;;25.50;20.00;;;;;19.88;65.21;101182.88;5014759;28;45350;-63
2021/08/30 08:19:38;;;;;;;;;24.25;21.25;;;;;19.84;64.59;101190.25;5016615;28;45436;-62
2021/08/30 08:22:03;;;;;;;;;30.25;19.50;;;;;19.79;65.27;101189.72;5015856;28;46157;-62
2021/08/30 08:24:29;;;;;;;;;22.00;19.50;;;;;19.76;64.59;101189.91;5016100;28;45462;-61
2021/08/30 08:26:56;;;;;;;;;22.00;20.50;;;;;19.81;64.70;101182.44;5016058;28;45393;-62
2021/08/30 08:29:22;;;;;;;;;22.00;19.00;;;;;19.89;64.44;101189.94;5016126;28;45589;-62
2021/08/30 08:31:48;;;;;;;;;19.50;16.50;;;;;19.91;64.42;101188.03;5015875;28;46484;-61
2021/08/30 08:34:14;;;;;;;;;20.50;19.50;;;;;20.00;64.08;101187.38;5015868;28;45294;-62
2021/08/30 08:36:40;;;;;;;;;23.00;20.00;;;;;20.09;63.91;101188.53;5015189;28;45332;-63
2021/08/30 08:39:07;;;;;;;;;22.25;18.75;;;;;20.20;63.63;101183.31;5015800;28;45303;-63
2021/08/30 08:41:35;;;;;;;;;18.00;16.00;;;;;20.22;63.26;101186.72;5015634;28;45858;-64
2021/08/30 08:44:04;;;;;;;;;24.00;22.25;;;;;20.36;63.08;101192.91;5015057;28;45353;-62
2021/08/30 08:46:31;;;;;;;;;24.00;20.50;;;;;20.57;62.02;101196.69;5015509;28;45290;-62
2021/08/30 08:48:57;;;;;;;;;21.00;19.25;;;;;20.76;61.30;101203.34;5015558;28;45283;-63
2021/08/30 08:51:23;;;;;;;;;15.25;15.25;;;;;20.86;60.13;101193.69;5013665;28;46589;-61
2021/08/30 08:53:49;;;;;;;;;23.75;21.50;;;;;20.96;60.50;101195.69;5015288;28;45477;-61
2021/08/30 08:56:19;;;;;;;;;21.00;20.75;;;;;21.10;59.76;101195.50;5015380;28;45376;-65
2021/08/30 08:58:45;;;;;;;;;20.00;19.25;;;;;21.29;58.73;101197.66;5015643;28;45320;-62
2021/08/30 09:01:11;;;;;;;;;22.50;22.50;;;;;21.30;59.32;101172.59;5015436;28;46084;-60
2021/08/30 09:03:48;;;;;;;;;18.75;18.25;;;;;21.45;57.75;101188.44;5014972;28;45287;-62
2021/08/30 09:06:31;;;;;;;;;18.75;15.50;;;;;21.35;56.33;101196.34;5013696;28;45441;-60
2021/08/30 09:09:04;;;;;;;;;14.75;14.75;;;;;21.26;56.70;101189.84;4997402;28;45201;-62
2021/08/30 09:11:56;;;;;;;;;23.50;22.50;;;;;21.21;57.18;101194.72;5014839;28;46774;-61
2021/08/30 09:14:24;;;;;;;;;22.00;17.75;;;;;21.28;56.44;101197.78;5014614;28;45290;-62
2021/08/30 09:17:08;;;;;;;;;19.00;17.50;;;;;21.31;57.90;101201.06;5015009;28;45186;-62
2021/08/30 09:19:34;;;;;;;;;24.00;20.00;;;;;21.46;57.44;101208.88;4997708;28;45695;-61
2021/08/30 09:22:07;;;;;;;;;20.25;18.75;;;;;21.52;57.84;101202.22;5014879;28;46457;-64
2021/08/30 09:24:33;;;;;;;;;19.75;17.75;;;;;21.67;57.20;101208.22;5013320;28;45461;-62
2021/08/30 09:27:04;;;;;;;;;20.75;18.25;;;;;21.90;56.51;101217.16;5014823;28;45273;-62
2021/08/30 09:29:32;;;;;;;;;17.75;17.75;;;;;21.88;56.02;101219.09;4997252;28;45341;-63
2021/08/30 09:32:12;;;;;;;;;16.00;16.00;;;;;22.02;54.84;101215.34;5014585;28;46060;-62
2021/08/30 09:34:44;;;;;;;;;19.50;17.75;;;;;22.26;55.18;101209.00;5014494;28;45434;-62
2021/08/30 09:37:19;;;;;;;;;22.50;19.50;;;;;22.39;54.49;101208.88;5014927;28;45356;-62
2021/08/30 09:39:46;;;;;;;;;18.50;18.50;;;;;22.53;54.47;101208.66;5014874;28;45273;-62
2021/08/30 09:42:13;;;;;;;;;22.25;18.50;;;;;22.57;52.55;101210.09;5014855;28;46275;-62
2021/08/30 09:44:38;;;;;;;;;20.25;15.75;;;;;22.47;52.48;101196.59;5014626;28;45525;-62
2021/08/30 09:47:12;;;;;;;;;17.75;16.00;;;;;22.33;53.70;101207.53;4996681;28;45449;-62
2021/08/30 09:49:39;;;;;;;;;19.00;17.25;;;;;22.14;52.96;101211.69;5014378;28;45467;-61
2021/08/30 09:52:04;;;;;;;;;15.50;15.00;;;;;21.93;53.25;101210.72;5014030;28;46673;-62
2021/08/30 09:54:30;;;;;;;;;17.00;16.75;;;;;21.70;53.95;101203.50;5013970;28;45433;-62
2021/08/30 09:56:57;;;;;;;;;20.50;16.25;;;;;21.66;55.01;101204.72;5014465;28;45693;-63
2021/08/30 09:59:24;;;;;;;;;14.00;12.00;;;;;21.75;54.88;101205.84;5012628;28;45581;-62
2021/08/30 10:01:54;;;;;;;;;20.75;19.75;;;;;21.85;54.76;101204.16;5013975;28;45860;-62
2021/08/30 10:04:21;;;;;;;;;20.00;19.25;;;;;21.93;54.58;101200.00;5013851;28;45330;-63
2021/08/30 10:06:51;;;;;;;;;24.75;20.25;;;;;22.06;54.28;101202.56;5014219;28;45339;-62
2021/08/30 10:09:19;;;;;;;;;24.25;18.25;;;;;22.19;52.52;101211.31;5014187;28;45421;-62
2021/08/30 10:11:46;;;;;;;;;22.50;19.00;;;;;22.33;53.75;101192.34;5014152;28;45994;-63
2021/08/30 10:14:22;;;;;;;;;18.00;16.75;;;;;22.59;51.88;101201.94;5014339;28;45265;-64
2021/08/30 10:16:49;;;;;;;;;15.50;15.50;;;;;22.57;52.20;101193.16;5013960;28;45397;-62
2021/08/30 10:19:25;;;;;;;;;18.00;18.00;;;;;22.61;52.34;101191.94;5014151;28;45684;-62
2021/08/30 10:21:51;;;;;;;;;20.00;18.25;;;;;22.63;51.93;101199.84;4995772;28;46177;-62
2021/08/30 10:24:17;;;;;;;;;15.75;13.50;;;;;22.75;52.22;101201.53;5013964;28;45269;-62
2021/08/30 10:26:45;;;;;;;;;16.25;15.50;;;;;22.88;50.57;101199.53;5018364;28;45400;-63
2021/08/30 10:29:12;;;;;;;;;24.50;20.25;;;;;22.95;51.78;101190.97;5016237;28;45334;-64
2021/08/30 10:31:49;;;;;;;;;16.50;15.00;;;;;23.12;51.59;101200.31;4999728;28;46223;-64
2021/08/30 10:34:23;;;;;;;;;17.75;14.50;;;;;23.05;50.47;101197.28;5017649;28;45247;-62
2021/08/30 10:36:48;;;;;;;;;12.50;12.50;;;;;23.02;51.33;101197.53;5017579;28;45285;-63
2021/08/30 10:39:14;;;;;;;;;18.75;18.25;;;;;22.88;50.29;101191.50;5017878;28;45225;-63
2021/08/30 10:41:42;;;;;;;;;14.50;12.50;;;;;22.81;50.91;101198.34;5017597;28;45402;-62
2021/08/30 10:44:11;;;;;;;;;20.25;16.25;;;;;22.74;51.19;101187.25;5017971;28;45364;-63
2021/08/30 10:46:50;;;;;;;;;16.75;15.25;;;;;22.94;51.30;101195.50;5017815;28;45394;-61
2021/08/30 10:49:30;;;;;;;;;20.75;15.75;;;;;23.10;50.75;101200.41;5017482;28;45227;-61
2021/08/30 10:52:05;;;;;;;;;17.50;15.50;;;;;23.15;50.09;101198.19;4982603;28;47526;-63
2021/08/30 10:54:31;;;;;;;;;14.00;13.75;;;;;23.32;50.46;101201.31;4998638;28;45447;-62
2021/08/30 10:56:59;;;;;;;;;11.00;10.00;;;;;23.54;50.33;101194.16;5016749;28;45380;-62
2021/08/30 10:59:27;;;;;;;;;17.25;15.50;;;;;23.61;49.17;101198.00;5016751;28;45167;-62
2021/08/30 11:02:03;;;;;;;;;12.75;11.75;;;;;23.59;50.24;101202.66;5016561;28;46324;-63
2021/08/30 11:04:34;;;;;;;;;20.75;15.00;;;;;23.46;49.45;101190.28;5016752;28;45331;-64
2021/08/30 11:07:01;;;;;;;;;21.75;21.50;;;;;23.67;49.42;101201.97;5016663;28;45303;-64
2021/08/30 11:09:27;;;;;;;;;15.75;15.00;;;;;23.93;48.50;101199.72;4999580;28;45532;-64
2021/08/30 11:11:52;;;;;;;;;14.50;11.50;;;;;24.17;47.90;101203.94;5016517;28;46196;-66
2021/08/30 11:14:19;;;;;;;;;15.25;14.00;;;;;24.42;45.60;101209.84;5017038;28;45723;-63
2021/08/30 11:16:54;;;;;;;;;12.75;12.25;;;;;24.36;46.00;101187.03;4999228;28;45365;-64